createdAt,value
2023-05-19T00:01:33.892Z,14.49
2023-05-19T00:04:00.271Z,14.49
2023-05-19T00:06:26.691Z,14.50
2023-05-19T00:08:53.131Z,14.43
2023-05-19T00:11:19.535Z,14.51
2023-05-19T00:13:45.945Z,14.52
2023-05-19T00:16:12.407Z,14.54
2023-05-19T00:18:38.909Z,14.52
2023-05-19T00:21:05.380Z,14.53
2023-05-19T00:23:31.790Z,14.54
2023-05-19T00:25:58.195Z,14.53
2023-05-19T00:28:24.595Z,14.51
2023-05-19T00:30:50.985Z,14.55
2023-05-19T00:33:17.361Z,14.52
2023-05-19T00:35:43.724Z,14.49
2023-05-19T00:38:10.134Z,14.51
2023-05-19T00:40:36.543Z,14.50
2023-05-19T00:43:02.924Z,14.46
2023-05-19T00:45:29.385Z,14.32
2023-05-19T00:47:55.847Z,14.35
2023-05-19T00:50:22.291Z,14.46
2023-05-19T00:52:48.660Z,14.48
2023-05-19T00:55:15.028Z,14.47
2023-05-19T00:57:41.430Z,14.44
2023-05-19T01:00:07.812Z,14.39
2023-05-19T01:02:34.354Z,14.41
2023-05-19T01:05:00.807Z,14.40
2023-05-19T01:07:27.214Z,14.40
2023-05-19T01:09:53.594Z,14.34
2023-05-19T01:12:19.994Z,14.35
2023-05-19T01:14:46.383Z,14.37
2023-05-19T01:17:12.754Z,14.35
2023-05-19T01:19:39.178Z,14.37
2023-05-19T01:22:05.591Z,14.38
2023-05-19T01:24:31.978Z,14.40
2023-05-19T01:26:58.378Z,14.38
2023-05-19T01:29:24.842Z,14.33
2023-05-19T01:31:51.254Z,14.36
2023-05-19T01:34:17.676Z,14.37
2023-05-19T01:36:44.116Z,14.38
2023-05-19T01:39:10.509Z,14.35
2023-05-19T01:41:36.878Z,14.40
2023-05-19T01:44:03.302Z,14.34
2023-05-19T01:46:29.803Z,14.30
2023-05-19T01:48:56.242Z,14.28
2023-05-19T01:51:22.765Z,14.28
2023-05-19T01:53:49.128Z,14.24
2023-05-19T01:56:15.557Z,14.21
2023-05-19T01:58:42.039Z,14.21
2023-05-19T02:01:08.497Z,14.25
2023-05-19T02:03:34.921Z,14.28
2023-05-19T02:06:01.325Z,14.25
2023-05-19T02:08:27.762Z,14.26
2023-05-19T02:10:54.156Z,14.24
2023-05-19T02:13:20.537Z,14.23
2023-05-19T02:15:46.964Z,14.22
2023-05-19T02:18:13.372Z,14.20
2023-05-19T02:20:39.776Z,14.18
2023-05-19T02:23:06.174Z,14.22
2023-05-19T02:25:32.562Z,14.21
2023-05-19T02:27:58.934Z,14.19
2023-05-19T02:30:25.339Z,14.23
2023-05-19T02:32:51.768Z,14.24
2023-05-19T02:35:18.179Z,14.21
2023-05-19T02:37:44.582Z,14.18
2023-05-19T02:40:11.044Z,14.13
2023-05-19T02:42:37.495Z,14.10
2023-05-19T02:45:03.906Z,14.06
2023-05-19T02:47:30.310Z,14.04
2023-05-19T02:49:56.731Z,14.10
2023-05-19T02:52:23.111Z,14.16
2023-05-19T02:54:49.494Z,14.20
2023-05-19T02:57:15.889Z,14.23
2023-05-19T02:59:42.315Z,14.21
2023-05-19T03:02:08.739Z,14.23
2023-05-19T03:04:35.130Z,14.23
2023-05-19T03:07:01.518Z,14.25
2023-05-19T03:09:27.894Z,14.29
2023-05-19T03:11:54.281Z,14.29
2023-05-19T03:14:20.656Z,14.24
2023-05-19T03:16:47.223Z,14.26
2023-05-19T03:19:13.763Z,14.28
2023-05-19T03:21:40.166Z,14.28
2023-05-19T03:24:06.636Z,14.29
2023-05-19T03:26:33.034Z,14.28
2023-05-19T03:28:59.434Z,14.26
2023-05-19T03:31:25.847Z,14.25
2023-05-19T03:33:52.282Z,14.27
2023-05-19T03:36:18.702Z,14.25
2023-05-19T03:38:45.111Z,14.24
2023-05-19T03:41:11.554Z,14.21
2023-05-19T03:43:37.970Z,14.23
2023-05-19T03:46:04.397Z,14.22
2023-05-19T03:48:30.895Z,14.21
2023-05-19T03:50:57.292Z,14.23
2023-05-19T03:53:23.689Z,14.23
2023-05-19T03:55:50.094Z,14.24
2023-05-19T03:58:16.467Z,14.21
2023-05-19T04:00:42.854Z,14.22
2023-05-19T04:03:09.396Z,14.23
2023-05-19T04:05:36.016Z,14.23
2023-05-19T04:08:02.458Z,14.20
2023-05-19T04:10:28.869Z,14.21
2023-05-19T04:12:55.231Z,14.24
2023-05-19T04:15:21.646Z,14.27
2023-05-19T04:17:48.197Z,14.29
2023-05-19T04:20:14.680Z,14.27
2023-05-19T04:22:41.080Z,14.25
2023-05-19T04:25:07.485Z,14.23
2023-05-19T04:27:33.866Z,14.23
2023-05-19T04:30:00.240Z,14.23
2023-05-19T04:32:26.685Z,14.21
2023-05-19T04:34:53.119Z,14.21
2023-05-19T04:37:19.518Z,14.25
2023-05-19T04:39:45.878Z,14.31
2023-05-19T04:42:12.293Z,14.33
2023-05-19T04:44:39.716Z,14.33
2023-05-19T04:47:06.372Z,14.34
2023-05-19T04:49:32.980Z,14.32
2023-05-19T04:51:59.369Z,14.31
2023-05-19T04:54:25.792Z,14.33
2023-05-19T04:56:52.145Z,14.38
2023-05-19T04:59:18.564Z,14.40
2023-05-19T05:01:45.045Z,14.44
2023-05-19T05:04:11.552Z,14.43
2023-05-19T05:06:38.047Z,14.46
2023-05-19T05:09:04.446Z,14.49
2023-05-19T05:11:30.841Z,14.51
2023-05-19T05:13:57.266Z,14.53
2023-05-19T05:16:23.711Z,14.58
2023-05-19T05:18:50.193Z,14.59
2023-05-19T05:21:16.642Z,14.62
2023-05-19T05:23:43.019Z,14.66
2023-05-19T05:26:09.499Z,14.68
2023-05-19T05:28:35.910Z,14.71
2023-05-19T05:31:02.302Z,14.72
2023-05-19T05:33:28.839Z,14.66
2023-05-19T05:35:55.251Z,14.63
2023-05-19T05:38:21.641Z,14.62
2023-05-19T05:40:48.036Z,14.62
2023-05-19T05:43:14.424Z,14.62
2023-05-19T05:45:40.849Z,14.59
2023-05-19T05:48:07.279Z,14.66
2023-05-19T05:50:33.761Z,14.70
2023-05-19T05:53:00.189Z,14.69
2023-05-19T05:55:26.605Z,14.71
2023-05-19T05:57:53.041Z,14.67
2023-05-19T06:00:19.472Z,14.65
2023-05-19T06:02:46.021Z,14.67
2023-05-19T06:05:12.549Z,14.66
2023-05-19T06:07:38.985Z,14.65
2023-05-19T06:10:05.365Z,14.65
2023-05-19T06:12:31.848Z,14.65
2023-05-19T06:14:58.256Z,14.66
2023-05-19T06:17:27.154Z,14.70
2023-05-19T06:19:53.625Z,14.69
2023-05-19T06:22:20.055Z,14.56
2023-05-19T06:24:46.481Z,14.61
2023-05-19T06:27:12.894Z,14.64
2023-05-19T06:29:39.281Z,14.70
2023-05-19T06:32:05.708Z,14.74
2023-05-19T06:34:32.190Z,14.73
2023-05-19T06:36:58.616Z,14.73
2023-05-19T06:39:24.993Z,14.72
2023-05-19T06:41:51.436Z,14.78
2023-05-19T06:44:20.461Z,14.73
2023-05-19T06:46:47.510Z,14.72
2023-05-19T06:49:13.951Z,14.75
2023-05-19T06:51:40.345Z,14.75
2023-05-19T06:54:06.800Z,14.71
2023-05-19T06:56:33.195Z,14.66
2023-05-19T06:58:59.617Z,14.71
2023-05-19T07:01:26.037Z,14.75
2023-05-19T07:03:52.630Z,14.74
2023-05-19T07:06:19.195Z,14.65
2023-05-19T07:08:45.634Z,14.66
2023-05-19T07:11:12.273Z,14.62
2023-05-19T07:13:38.714Z,14.63
2023-05-19T07:16:05.110Z,14.66
2023-05-19T07:18:31.536Z,14.57
2023-05-19T07:20:57.926Z,14.65
2023-05-19T07:23:24.298Z,14.65
2023-05-19T07:25:50.683Z,14.68
2023-05-19T07:28:17.094Z,14.63
2023-05-19T07:30:43.503Z,14.66
2023-05-19T07:33:09.946Z,14.76
2023-05-19T07:35:36.364Z,14.77
2023-05-19T07:38:02.777Z,14.78
2023-05-19T07:40:29.129Z,14.74
2023-05-19T07:42:55.517Z,14.76
2023-05-19T07:45:22.088Z,14.75
2023-05-19T07:47:48.618Z,14.82
2023-05-19T07:50:15.102Z,14.79
2023-05-19T07:52:41.536Z,14.77
2023-05-19T07:55:07.933Z,14.77
2023-05-19T07:57:34.404Z,14.75
2023-05-19T08:00:00.811Z,14.77
2023-05-19T08:02:27.399Z,14.58
2023-05-19T08:04:53.961Z,14.76
2023-05-19T08:07:20.429Z,14.77
2023-05-19T08:09:46.806Z,14.73
2023-05-19T08:12:13.236Z,14.69
2023-05-19T08:14:39.663Z,14.65
2023-05-19T08:17:06.101Z,14.62
2023-05-19T08:19:32.506Z,14.86
2023-05-19T08:21:58.966Z,14.78
2023-05-19T08:24:25.359Z,14.89
2023-05-19T08:26:51.763Z,14.91
2023-05-19T08:29:18.165Z,15.05
2023-05-19T08:31:44.620Z,15.07
2023-05-19T08:34:11.087Z,15.02
2023-05-19T08:36:37.695Z,14.99
2023-05-19T08:39:04.120Z,14.91
2023-05-19T08:41:30.521Z,14.87
2023-05-19T08:43:56.968Z,14.81
2023-05-19T08:46:23.386Z,14.83
2023-05-19T08:48:49.866Z,14.90
2023-05-19T08:51:16.369Z,14.86
2023-05-19T08:53:42.869Z,14.89
2023-05-19T08:56:09.307Z,14.90
2023-05-19T08:58:35.743Z,14.87
2023-05-19T09:01:02.190Z,14.90
2023-05-19T09:03:28.711Z,14.86
2023-05-19T09:05:55.319Z,14.92
2023-05-19T09:08:21.788Z,14.94
2023-05-19T09:10:48.245Z,14.87
2023-05-19T09:13:14.681Z,14.85
2023-05-19T09:15:41.152Z,14.89
2023-05-19T09:18:07.538Z,14.92
2023-05-19T09:20:33.943Z,14.96
2023-05-19T09:23:00.425Z,14.95
2023-05-19T09:25:26.827Z,15.00
2023-05-19T09:27:53.269Z,15.04
2023-05-19T09:30:19.714Z,15.12
2023-05-19T09:32:48.416Z,15.21
2023-05-19T09:35:14.870Z,15.39
2023-05-19T09:37:41.269Z,15.48
2023-05-19T09:40:07.686Z,15.63
2023-05-19T09:42:34.088Z,15.72
2023-05-19T09:45:00.512Z,15.80
2023-05-19T09:47:27.010Z,15.90
2023-05-19T09:49:53.481Z,15.94
2023-05-19T09:52:19.919Z,15.99
2023-05-19T09:54:46.349Z,16.02
2023-05-19T09:57:12.729Z,16.07
2023-05-19T09:59:39.119Z,16.15
2023-05-19T10:02:05.578Z,16.23
2023-05-19T10:04:32.206Z,16.24
2023-05-19T10:06:58.678Z,16.28
2023-05-19T10:09:25.149Z,16.30
2023-05-19T10:11:51.592Z,16.28
2023-05-19T10:14:18.049Z,16.31
2023-05-19T10:16:44.503Z,16.36
2023-05-19T10:19:10.968Z,16.41
2023-05-19T10:21:37.355Z,16.48
2023-05-19T10:24:03.740Z,16.53
2023-05-19T10:26:30.126Z,16.57
2023-05-19T10:28:56.494Z,16.56
2023-05-19T10:31:22.894Z,16.72
2023-05-19T10:33:49.302Z,16.87
2023-05-19T10:36:15.716Z,17.00
2023-05-19T10:38:42.129Z,17.10
2023-05-19T10:41:09.005Z,17.12
2023-05-19T10:43:35.427Z,17.24
2023-05-19T10:46:01.931Z,17.39
2023-05-19T10:48:28.298Z,17.47
2023-05-19T10:50:54.750Z,17.45
2023-05-19T10:53:21.175Z,17.45
2023-05-19T10:55:47.616Z,17.45
2023-05-19T10:58:14.021Z,17.45
2023-05-19T11:00:40.439Z,17.52
2023-05-19T11:03:06.945Z,17.40
2023-05-19T11:05:33.619Z,17.18
2023-05-19T11:08:00.168Z,17.05
2023-05-19T11:10:26.534Z,16.73
2023-05-19T11:12:52.913Z,16.64
2023-05-19T11:15:19.333Z,16.63
2023-05-19T11:17:45.762Z,16.47
2023-05-19T11:20:12.170Z,16.39
2023-05-19T11:22:38.619Z,16.42
2023-05-19T11:25:05.040Z,16.43
2023-05-19T11:27:31.751Z,16.53
2023-05-19T11:29:58.306Z,16.63
2023-05-19T11:32:24.829Z,16.74
2023-05-19T11:34:51.314Z,16.79
2023-05-19T11:37:17.718Z,16.72
2023-05-19T11:39:44.093Z,16.84
2023-05-19T11:42:10.532Z,16.77
2023-05-19T11:44:36.992Z,16.90
2023-05-19T11:47:03.387Z,16.98
2023-05-19T11:49:29.804Z,17.20
2023-05-19T11:51:56.278Z,17.37
2023-05-19T11:54:22.735Z,17.46
2023-05-19T11:56:49.167Z,17.59
2023-05-19T11:59:15.559Z,17.65
2023-05-19T12:01:41.964Z,17.63
2023-05-19T12:04:08.366Z,17.67
2023-05-19T12:06:34.813Z,17.55
2023-05-19T12:09:01.228Z,17.37
2023-05-19T12:11:27.703Z,17.39
2023-05-19T12:13:54.135Z,17.53
2023-05-19T12:16:20.578Z,17.54
2023-05-19T12:18:47.046Z,17.55
2023-05-19T12:21:13.556Z,17.48
2023-05-19T12:23:39.930Z,17.54
2023-05-19T12:26:06.370Z,17.51
2023-05-19T12:28:32.860Z,17.60
2023-05-19T12:30:59.310Z,17.49
2023-05-19T12:33:25.850Z,17.54
2023-05-19T12:35:52.360Z,17.66
2023-05-19T12:38:18.819Z,17.78
2023-05-19T12:40:45.210Z,17.84
2023-05-19T12:43:11.605Z,17.95
2023-05-19T12:45:38.035Z,18.00
2023-05-19T12:48:04.634Z,18.11
2023-05-19T12:50:31.372Z,18.05
2023-05-19T12:52:58.119Z,18.08
2023-05-19T12:55:24.522Z,18.16
2023-05-19T12:57:50.959Z,18.23
2023-05-19T13:00:17.436Z,18.28
2023-05-19T13:02:43.929Z,18.23
2023-05-19T13:05:10.425Z,18.31
2023-05-19T13:07:36.838Z,18.37
2023-05-19T13:10:03.321Z,18.34
2023-05-19T13:12:29.760Z,18.44
2023-05-19T13:14:56.155Z,18.41
2023-05-19T13:17:22.580Z,18.42
2023-05-19T13:19:49.013Z,18.47
2023-05-19T13:22:15.494Z,18.50
2023-05-19T13:24:41.920Z,18.55
2023-05-19T13:27:08.329Z,18.59
2023-05-19T13:29:34.771Z,18.57
2023-05-19T13:32:01.627Z,18.55
2023-05-19T13:34:28.136Z,18.55
2023-05-19T13:36:54.534Z,18.52
2023-05-19T13:39:23.454Z,18.59
2023-05-19T13:41:49.952Z,18.70
2023-05-19T13:44:16.502Z,18.77
2023-05-19T13:46:45.417Z,18.81
2023-05-19T13:49:12.938Z,18.81
2023-05-19T13:51:39.351Z,18.82
2023-05-19T13:54:05.857Z,18.77
2023-05-19T13:56:32.310Z,18.72
2023-05-19T13:58:58.754Z,18.61
2023-05-19T14:01:25.168Z,18.54
2023-05-19T14:03:51.896Z,18.50
2023-05-19T14:06:18.456Z,18.45
2023-05-19T14:08:44.900Z,18.44
2023-05-19T14:11:11.343Z,18.41
2023-05-19T14:13:41.106Z,18.38
2023-05-19T14:16:09.812Z,18.34
2023-05-19T14:18:36.402Z,18.33
2023-05-19T14:21:02.859Z,18.33
2023-05-19T14:23:29.321Z,18.27
2023-05-19T14:25:55.748Z,18.25
2023-05-19T14:28:22.194Z,18.26
2023-05-19T14:30:48.891Z,18.23
2023-05-19T14:33:15.403Z,18.15
2023-05-19T14:35:41.935Z,18.12
2023-05-19T14:38:10.796Z,18.10
2023-05-19T14:40:37.213Z,18.07
2023-05-19T14:43:03.656Z,18.04
2023-05-19T14:45:30.071Z,18.08
2023-05-19T14:47:56.547Z,18.12
2023-05-19T14:50:22.980Z,18.13
2023-05-19T14:52:49.482Z,18.10
2023-05-19T14:55:15.954Z,18.13
2023-05-19T14:57:42.377Z,18.10
2023-05-19T15:00:08.872Z,18.06
2023-05-19T15:02:35.415Z,18.04
2023-05-19T15:05:01.990Z,18.05
2023-05-19T15:07:28.461Z,18.02
2023-05-19T15:09:54.926Z,17.99
2023-05-19T15:12:21.485Z,17.94
2023-05-19T15:14:47.893Z,17.92
2023-05-19T15:17:14.486Z,17.87
2023-05-19T15:19:41.027Z,17.83
2023-05-19T15:22:07.471Z,17.77
2023-05-19T15:24:33.968Z,17.74
2023-05-19T15:27:00.386Z,17.71
2023-05-19T15:29:26.811Z,17.67
2023-05-19T15:31:53.227Z,17.68
2023-05-19T15:34:19.806Z,17.71
2023-05-19T15:36:46.288Z,17.74
2023-05-19T15:39:12.746Z,17.78
2023-05-19T15:41:39.294Z,17.80
2023-05-19T15:44:05.735Z,17.81
2023-05-19T15:46:32.148Z,17.84
2023-05-19T15:48:58.600Z,17.76
2023-05-19T15:51:25.082Z,17.80
2023-05-19T15:53:51.474Z,17.80
2023-05-19T15:56:17.910Z,17.70
2023-05-19T15:58:44.374Z,17.79
2023-05-19T16:01:10.798Z,17.79
2023-05-19T16:03:37.301Z,17.82
2023-05-19T16:06:03.849Z,17.88
2023-05-19T16:08:30.286Z,17.89
2023-05-19T16:10:56.674Z,17.88
2023-05-19T16:13:23.073Z,17.84
2023-05-19T16:15:49.531Z,17.74
2023-05-19T16:18:16.020Z,17.69
2023-05-19T16:20:42.498Z,17.69
2023-05-19T16:23:09.096Z,17.73
2023-05-19T16:25:35.520Z,17.75
2023-05-19T16:28:01.932Z,17.80
2023-05-19T16:30:28.367Z,17.81
2023-05-19T16:32:54.828Z,17.83
2023-05-19T16:35:21.392Z,17.87
2023-05-19T16:37:47.841Z,17.88
2023-05-19T16:40:14.242Z,17.92
2023-05-19T16:42:40.621Z,17.94
2023-05-19T16:45:07.039Z,17.95
2023-05-19T16:47:33.523Z,17.97
2023-05-19T16:49:59.982Z,17.98
2023-05-19T16:52:26.409Z,17.96
2023-05-19T16:54:52.827Z,17.94
2023-05-19T16:57:19.416Z,17.89
2023-05-19T16:59:45.807Z,17.88
2023-05-19T17:02:12.241Z,17.82
2023-05-19T17:04:38.741Z,17.77
2023-05-19T17:07:05.181Z,17.73
2023-05-19T17:09:31.685Z,17.71
2023-05-19T17:11:58.112Z,17.65
2023-05-19T17:14:24.556Z,17.61
2023-05-19T17:16:51.033Z,17.57
2023-05-19T17:19:17.716Z,17.54
2023-05-19T17:21:44.188Z,17.50
2023-05-19T17:24:10.702Z,17.51
2023-05-19T17:26:37.129Z,17.48
2023-05-19T17:29:03.591Z,17.49
2023-05-19T17:31:30.055Z,17.47
2023-05-19T17:33:56.510Z,17.43
2023-05-19T17:36:22.911Z,17.40
2023-05-19T17:38:49.361Z,17.41
2023-05-19T17:41:15.900Z,17.41
2023-05-19T17:43:42.370Z,17.39
2023-05-19T17:46:08.855Z,17.32
2023-05-19T17:48:35.303Z,17.31
2023-05-19T17:51:02.720Z,17.30
2023-05-19T17:53:30.346Z,17.32
2023-05-19T17:55:56.867Z,17.28
2023-05-19T17:58:23.339Z,17.23
2023-05-19T18:00:49.761Z,17.20
2023-05-19T18:03:16.347Z,17.20
2023-05-19T18:05:42.894Z,17.16
2023-05-19T18:08:09.548Z,17.13
2023-05-19T18:10:36.125Z,17.11
2023-05-19T18:13:02.553Z,17.02
2023-05-19T18:15:29.007Z,16.99
2023-05-19T18:17:55.547Z,16.97
2023-05-19T18:20:21.991Z,16.96
2023-05-19T18:22:48.438Z,16.92
2023-05-19T18:25:14.888Z,16.85
2023-05-19T18:27:41.377Z,16.80
2023-05-19T18:30:07.812Z,16.74
2023-05-19T18:32:34.319Z,16.73
2023-05-19T18:35:00.784Z,16.67
2023-05-19T18:37:27.221Z,16.62
2023-05-19T18:39:53.671Z,16.56
2023-05-19T18:42:20.077Z,16.48
2023-05-19T18:44:46.512Z,16.37
2023-05-19T18:47:12.946Z,16.34
2023-05-19T18:49:39.376Z,16.27
2023-05-19T18:52:05.853Z,16.19
2023-05-19T18:54:32.289Z,16.17
2023-05-19T18:56:58.768Z,16.16
2023-05-19T18:59:25.284Z,16.18
2023-05-19T19:01:51.702Z,16.21
2023-05-19T19:04:18.226Z,16.18
2023-05-19T19:06:44.676Z,16.16
2023-05-19T19:09:11.074Z,16.17
2023-05-19T19:11:37.489Z,16.13
2023-05-19T19:14:04.014Z,16.12
2023-05-19T19:16:30.501Z,16.12
2023-05-19T19:18:56.999Z,16.15
2023-05-19T19:21:23.573Z,16.19
2023-05-19T19:23:50.060Z,16.21
2023-05-19T19:26:16.570Z,16.25
2023-05-19T19:28:43.178Z,16.27
2023-05-19T19:31:09.635Z,16.30
2023-05-19T19:33:36.146Z,16.31
2023-05-19T19:36:03.889Z,16.28
2023-05-19T19:38:30.321Z,16.20
2023-05-19T19:40:56.753Z,16.18
2023-05-19T19:43:23.165Z,16.22
2023-05-19T19:45:49.598Z,16.20
2023-05-19T19:48:16.010Z,16.19
2023-05-19T19:50:42.440Z,16.17
2023-05-19T19:53:08.967Z,16.18
2023-05-19T19:55:35.467Z,16.12
2023-05-19T19:58:01.896Z,16.14
2023-05-19T20:00:28.347Z,16.13
2023-05-19T20:03:04.955Z,16.12
2023-05-19T20:05:32.482Z,16.13
2023-05-19T20:07:59.024Z,16.12
2023-05-19T20:10:25.454Z,16.04
2023-05-19T20:12:52.145Z,16.04
2023-05-19T20:15:18.600Z,16.00
2023-05-19T20:17:45.062Z,16.02
2023-05-19T20:20:11.524Z,15.97
2023-05-19T20:22:37.968Z,15.96
2023-05-19T20:25:04.391Z,15.92
2023-05-19T20:27:30.878Z,15.92
2023-05-19T20:29:57.311Z,15.88
2023-05-19T20:32:23.761Z,15.93
2023-05-19T20:34:50.399Z,15.93
2023-05-19T20:37:16.807Z,16.02
2023-05-19T20:39:43.299Z,16.06
2023-05-19T20:42:09.700Z,16.10
2023-05-19T20:44:36.129Z,16.12
2023-05-19T20:47:02.608Z,16.12
2023-05-19T20:49:29.046Z,16.07
2023-05-19T20:51:55.515Z,16.03
2023-05-19T20:54:22.052Z,16.02
2023-05-19T20:56:48.686Z,16.02
2023-05-19T20:59:15.108Z,16.04
2023-05-19T21:01:41.606Z,16.04
2023-05-19T21:04:08.261Z,16.04
2023-05-19T21:06:34.768Z,16.02
2023-05-19T21:09:01.250Z,15.99
2023-05-19T21:11:27.726Z,15.94
2023-05-19T21:13:54.145Z,15.93
2023-05-19T21:16:20.710Z,15.90
2023-05-19T21:18:47.274Z,15.90
2023-05-19T21:21:13.765Z,15.86
2023-05-19T21:23:40.168Z,15.83
2023-05-19T21:26:06.730Z,15.80
2023-05-19T21:28:33.179Z,15.81
2023-05-19T21:30:59.735Z,15.82
2023-05-19T21:33:26.206Z,15.80
2023-05-19T21:35:52.653Z,15.81
2023-05-19T21:38:24.345Z,15.77
2023-05-19T21:40:50.928Z,15.80
2023-05-19T21:43:17.371Z,15.70
2023-05-19T21:45:43.825Z,15.74
2023-05-19T21:48:10.346Z,15.71
2023-05-19T21:50:36.786Z,15.70
2023-05-19T21:53:03.297Z,15.61
2023-05-19T21:55:29.852Z,15.54
2023-05-19T21:57:56.295Z,15.48
2023-05-19T22:00:22.716Z,15.49
2023-05-19T22:02:49.273Z,15.48
2023-05-19T22:05:15.791Z,15.49
2023-05-19T22:07:42.241Z,15.52
2023-05-19T22:10:08.682Z,15.57
2023-05-19T22:12:35.190Z,15.66
2023-05-19T22:15:01.679Z,15.69
2023-05-19T22:17:28.249Z,15.70
2023-05-19T22:19:54.800Z,15.67
2023-05-19T22:22:21.364Z,15.61
2023-05-19T22:24:47.800Z,15.58
2023-05-19T22:27:14.240Z,15.50
2023-05-19T22:29:40.704Z,15.58
2023-05-19T22:32:07.190Z,15.60
2023-05-19T22:34:33.681Z,15.64
2023-05-19T22:37:00.117Z,15.70
2023-05-19T22:39:26.576Z,15.70
2023-05-19T22:41:52.972Z,15.69
2023-05-19T22:44:19.407Z,15.68
2023-05-19T22:46:45.829Z,15.63
2023-05-19T22:49:12.240Z,15.64
2023-05-19T22:51:38.670Z,15.59
2023-05-19T22:54:05.093Z,15.58
2023-05-19T22:56:31.495Z,15.59
2023-05-19T22:58:57.956Z,15.61
2023-05-19T23:01:24.678Z,15.63
2023-05-19T23:03:51.187Z,15.63
2023-05-19T23:06:17.604Z,15.57
2023-05-19T23:08:44.829Z,15.53
2023-05-19T23:11:12.023Z,15.52
2023-05-19T23:13:38.441Z,15.55
2023-05-19T23:16:04.894Z,15.50
2023-05-19T23:18:31.304Z,15.48
2023-05-19T23:20:57.737Z,15.45
2023-05-19T23:23:24.212Z,15.42
2023-05-19T23:25:50.689Z,15.33
2023-05-19T23:28:17.144Z,15.28
2023-05-19T23:30:43.548Z,15.28
2023-05-19T23:33:10.047Z,15.20
2023-05-19T23:35:36.692Z,15.14
2023-05-19T23:38:03.154Z,15.10
2023-05-19T23:40:29.631Z,15.08
2023-05-19T23:42:56.096Z,15.11
2023-05-19T23:45:22.505Z,15.05
2023-05-19T23:47:48.975Z,15.05
2023-05-19T23:50:15.456Z,15.16
2023-05-19T23:52:41.902Z,15.26
2023-05-19T23:55:08.530Z,15.34
2023-05-19T23:57:34.998Z,15.39
